Weather reports worldwide

Advertisment
Puebla De D. Rodrigo, Spain (8271): temperature & dewpoint: 08.11.2018 13:00:00 - 14.11.2018 13:00:00 (CET)Puebla De D. Rodrigo, Spain (8271): wind speed & gusts: 08.11.2018 13:00:00 - 14.11.2018 13:00:00 (CET)Puebla De D. Rodrigo, Spain (8271): wind direction: 08.11.2018 13:00:00 - 14.11.2018 13:00:00 (CET)Puebla De D. Rodrigo, Spain (8271): reduced air pressure: 08.11.2018 13:00:00 - 14.11.2018 13:00:00 (CET)Puebla De D. Rodrigo, Spain (8271): precipitation: 08.11.2018 13:00:00 - 14.11.2018 13:00:00 (CET)
Date & Time tt [°C] td [°C] ff [km/h] ff [kn] fx [km/h] fx [kn] dd ppp [hPa] rr [mm]
14.11.2018 13:00:00 - - - - - - - - -
14.11.2018 12:00:00 16,8 6,2 16 9 27 15 E 1014,9 0,0
14.11.2018 11:00:00 13,7 8,8 0 0 0 0 N 1016,3 0,0
14.11.2018 10:00:00 13,4 7,8 0 0 0 0 N 1016,8 0,0
14.11.2018 09:00:00 11,3 8,4 0 0 8 4 N 1017,1 0,0
14.11.2018 08:00:00 10,6 8,1 6 4 16 9 SE 1017,0 0,0
14.11.2018 07:00:00 10,6 8,4 1 1 9 5 SE 1017,2 -
14.11.2018 06:00:00 10,7 8,8 0 0 7 4 N 1017,1 0,0
14.11.2018 05:00:00 10,8 8,4 3 1 16 9 E 1017,1 0,0
14.11.2018 04:00:00 12,5 9,2 14 8 22 12 ESE 1017,1 0,0
14.11.2018 03:00:00 12,4 9,6 7 4 16 9 SE 1017,4 0,0
14.11.2018 02:00:00 12,3 9,7 6 4 13 7 SE 1017,7 0,0
14.11.2018 01:00:00 12,4 9,8 2 1 12 7 SE 1018,1 -
14.11.2018 00:00:00 12,3 9,6 3 2 16 8 E 1018,5 0,0
13.11.2018 23:00:00 13,1 8,5 12 6 19 10 ESE 1018,2 0,0
13.11.2018 22:00:00 13,7 8,8 10 6 17 9 SE 1017,8 0,0
13.11.2018 21:00:00 13,7 8,4 6 3 12 6 SE 1017,7 0,1
13.11.2018 20:00:00 14,3 7,8 4 2 18 10 SE 1017,4 0,0
13.11.2018 19:00:00 14,6 7,0 7 4 12 6 E 1017,0 -
13.11.2018 18:00:00 15,3 6,5 4 2 18 10 ENE 1016,3 0,0
13.11.2018 17:00:00 17,0 5,9 14 8 25 14 E 1015,9 0,0
13.11.2018 16:00:00 18,1 7,6 10 5 18 10 ESE 1015,3 0,0
13.11.2018 15:00:00 18,3 7,7 11 6 18 10 SE 1015,3 0,0
13.11.2018 14:00:00 17,9 7,6 10 6 17 9 ESE 1015,6 0,0
13.11.2018 13:00:00 17,5 8,1 6 4 16 9 SSE 1016,3 -
13.11.2018 12:00:00 16,4 8,7 7 4 17 9 ESE 1017,3 0,0
13.11.2018 11:00:00 14,0 9,4 5 3 11 6 ESE 1018,2 0,0
13.11.2018 10:00:00 10,5 9,9 6 3 11 6 E 1018,7 0,0
13.11.2018 09:00:00 9,7 9,0 1 1 12 7 N 1018,5 0,0
13.11.2018 08:00:00 8,7 8,1 0 0 0 0 N 1018,1 0,0
13.11.2018 07:00:00 8,3 7,7 0 0 0 0 N 1017,7 -
13.11.2018 06:00:00 8,0 7,4 0 0 0 0 N 1017,7 0,0
13.11.2018 05:00:00 8,5 7,8 0 0 7 4 ESE 1017,0 0,0
13.11.2018 04:00:00 9,1 8,5 0 0 0 0 N 1016,7 0,0
13.11.2018 03:00:00 9,3 8,7 0 0 0 0 N 1016,9 0,0
13.11.2018 02:00:00 8,5 7,8 0 0 4 2 SE 1016,7 0,0
13.11.2018 01:00:00 9,1 8,5 1 1 7 4 WSW 1016,0 -
13.11.2018 00:00:00 9,8 9,2 2 1 9 5 WSW 1015,4 0,0
12.11.2018 23:00:00 10,3 9,7 5 3 11 6 W 1015,2 0,0
12.11.2018 22:00:00 10,6 9,8 7 4 10 6 WSW 1015,0 0,0
12.11.2018 21:00:00 12,0 10,5 3 1 8 5 W 1014,1 0,0
12.11.2018 20:00:00 11,6 10,2 0 0 4 2 N 1013,5 0,0
12.11.2018 19:00:00 12,4 10,6 3 2 8 5 SW 1012,6 -
12.11.2018 18:00:00 13,3 8,8 0 0 9 5 N 1011,4 0,0
12.11.2018 17:00:00 14,4 8,1 0 0 17 9 N 1010,9 0,0
12.11.2018 16:00:00 14,4 7,4 10 5 21 12 ESE 1010,3 0,0
12.11.2018 15:00:00 14,1 8,3 12 7 27 14 SE 1010,5 0,0
12.11.2018 14:00:00 13,1 9,9 10 6 20 11 SE 1010,7 0,0
12.11.2018 13:00:00 12,4 10,2 6 3 12 7 ESE 1011,5 -
12.11.2018 12:00:00 10,9 9,3 0 0 0 0 N 1012,5 0,5
12.11.2018 11:00:00 10,5 9,6 3 2 8 4 W 1012,4 0,6
12.11.2018 10:00:00 9,7 8,8 0 0 11 6 SSW 1011,8 0,7
12.11.2018 09:00:00 9,8 7,0 0 0 9 5 N 1011,1 0,1
12.11.2018 08:00:00 9,9 7,0 4 2 11 6 SE 1009,8 0,0
12.11.2018 07:00:00 9,7 7,1 7 4 15 8 SE 1008,8 -
12.11.2018 06:00:00 10,3 7,8 9 5 16 9 ESE 1008,3 0,0
12.11.2018 05:00:00 10,6 8,5 8 4 19 11 SE 1008,1 0,0
12.11.2018 04:00:00 10,8 9,0 11 6 20 11 NE 1008,6 0,0
12.11.2018 03:00:00 10,5 8,7 6 3 16 9 E 1008,3 0,0
12.11.2018 02:00:00 11,1 8,5 1 0 16 9 W 1008,8 0,0
12.11.2018 01:00:00 11,8 10,2 0 0 16 8 N 1008,4 -
12.11.2018 00:00:00 12,3 10,2 8 4 18 10 SSW 1008,0 0,0
11.11.2018 23:00:00 10,8 9,6 0 0 0 0 N 1008,3 0,0
11.11.2018 22:00:00 12,0 9,9 0 0 0 0 N 1007,8 0,0
11.11.2018 21:00:00 12,8 9,9 0 0 0 0 N 1007,7 0,0
11.11.2018 20:00:00 12,6 9,8 0 0 0 0 N 1007,7 0,0
11.11.2018 19:00:00 13,5 8,9 0 0 14 8 N 1007,1 -
11.11.2018 18:00:00 14,9 8,4 9 5 24 13 S 1006,5 0,0
11.11.2018 17:00:00 16,6 7,8 8 4 26 14 SSW 1006,6 0,0
11.11.2018 16:00:00 17,5 6,7 13 7 23 13 S 1006,5 0,0
11.11.2018 15:00:00 17,4 7,4 12 6 28 15 SSE 1006,9 0,0
11.11.2018 14:00:00 17,1 8,5 14 8 26 14 S 1008,0 0,0
11.11.2018 13:00:00 15,6 9,9 12 6 22 12 S 1009,4 -
11.11.2018 12:00:00 15,7 9,6 12 7 21 11 S 1010,4 0,0
11.11.2018 11:00:00 14,3 11,1 10 5 16 9 S 1011,1 0,1
11.11.2018 10:00:00 13,8 11,4 0 0 10 5 S 1011,3 0,0
11.11.2018 09:00:00 12,9 11,7 0 0 6 4 N 1011,8 0,0
11.11.2018 08:00:00 12,7 11,2 6 3 18 10 SW 1011,5 0,0
11.11.2018 07:00:00 12,9 11,7 9 5 21 11 SW 1011,1 -
11.11.2018 06:00:00 12,8 12,0 9 5 16 8 SW 1011,2 0,0
11.11.2018 05:00:00 12,6 11,7 6 3 16 9 SW 1011,2 0,0
11.11.2018 04:00:00 12,7 11,4 5 3 21 11 WSW 1011,6 0,0
11.11.2018 03:00:00 12,8 12,2 11 6 19 11 SW 1011,4 0,6
11.11.2018 02:00:00 12,7 12,1 4 2 19 10 WSW 1011,8 0,6
11.11.2018 01:00:00 12,5 11,9 12 7 29 16 SSW 1012,1 -
11.11.2018 00:00:00 12,3 11,7 14 8 27 14 SSW 1012,3 0,6
10.11.2018 23:00:00 12,2 11,4 16 9 29 16 SSW 1012,3 0,1
10.11.2018 22:00:00 12,0 11,1 9 5 22 12 SSW 1012,5 0,0
10.11.2018 21:00:00 11,8 10,9 13 7 25 14 SSW 1012,4 0,0
10.11.2018 20:00:00 11,3 10,4 15 8 23 12 SSW 1012,1 0,0
10.11.2018 19:00:00 11,1 9,8 16 9 28 15 SSW 1011,6 -
10.11.2018 18:00:00 11,8 10,5 9 5 27 15 SSW 1011,5 0,0
10.11.2018 17:00:00 13,8 8,8 12 6 32 17 SW 1010,8 0,0
10.11.2018 16:00:00 14,3 8,0 15 8 34 18 SW 1010,6 0,0
10.11.2018 15:00:00 14,2 8,0 16 9 37 20 SW 1011,0 0,0
10.11.2018 14:00:00 14,2 7,7 20 11 36 19 SW 1011,2 0,0
10.11.2018 13:00:00 13,2 7,6 17 9 30 16 SW 1012,7 -
10.11.2018 12:00:00 13,2 7,1 17 9 32 17 SSW 1012,8 0,0
10.11.2018 11:00:00 12,5 7,8 13 7 26 14 SSW 1014,0 0,2
10.11.2018 10:00:00 11,2 6,7 9 5 26 14 SSW 1014,3 0,0
10.11.2018 09:00:00 10,9 6,4 10 5 23 12 SW 1013,8 0,0
10.11.2018 08:00:00 10,2 6,7 9 5 24 13 SSW 1013,7 0,0
10.11.2018 07:00:00 10,1 6,8 6 3 22 12 SSW 1013,8 -
10.11.2018 06:00:00 10,0 6,5 12 6 26 14 SW 1013,9 0,0
10.11.2018 05:00:00 10,0 6,1 12 6 22 12 SSW 1014,7 0,0
10.11.2018 04:00:00 10,3 5,9 6 4 18 10 SW 1015,2 0,0
10.11.2018 03:00:00 10,1 5,6 9 5 18 10 SSW 1015,4 0,0
10.11.2018 02:00:00 10,3 5,5 6 3 21 12 SSW 1015,9 0,0
10.11.2018 01:00:00 10,1 4,8 0 0 9 5 SSE 1016,5 -
10.11.2018 00:00:00 10,1 4,5 6 3 14 8 SSW 1016,7 0,0
09.11.2018 23:00:00 10,1 4,8 3 2 8 4 SSW 1016,9 0,0
09.11.2018 22:00:00 10,2 4,8 2 1 10 5 WSW 1017,0 0,0
09.11.2018 21:00:00 10,2 4,3 4 2 13 7 SW 1017,0 0,0
09.11.2018 20:00:00 10,3 3,9 4 2 15 8 WSW 1016,9 0,0
09.11.2018 19:00:00 10,2 3,2 4 2 16 9 WSW 1016,7 -
09.11.2018 18:00:00 10,6 1,9 5 3 21 11 WSW 1016,3 0,0
09.11.2018 17:00:00 11,6 0,9 7 4 21 11 W 1016,0 0,0
09.11.2018 16:00:00 12,9 0,6 9 5 26 14 WSW 1015,9 0,0
09.11.2018 15:00:00 13,7 0,0 11 6 26 14 W 1015,8 0,0
09.11.2018 14:00:00 13,9 1,9 10 5 24 13 WSW 1016,2 0,0
09.11.2018 13:00:00 13,6 2,3 9 5 28 15 WSW 1017,0 -
09.11.2018 12:00:00 12,8 1,5 7 4 21 12 W 1017,9 0,0
09.11.2018 11:00:00 10,7 3,2 5 3 19 11 W 1018,4 0,0
09.11.2018 10:00:00 9,2 3,6 5 3 13 7 W 1018,6 0,0
09.11.2018 09:00:00 6,3 4,1 4 2 17 9 W 1018,4 0,0
09.11.2018 08:00:00 5,1 3,4 9 5 16 9 WSW 1017,9 0,0
09.11.2018 07:00:00 5,3 3,4 4 2 21 11 WSW 1017,3 -
09.11.2018 06:00:00 5,7 3,9 8 4 16 9 W 1016,9 0,0
09.11.2018 05:00:00 6,0 3,4 4 2 16 8 W 1015,9 0,0
09.11.2018 04:00:00 6,4 3,6 4 2 22 12 WSW 1015,5 0,0
09.11.2018 03:00:00 6,7 4,3 6 4 18 10 WSW 1014,9 0,0
09.11.2018 02:00:00 6,4 4,1 11 6 24 13 WSW 1014,6 0,0
09.11.2018 01:00:00 6,9 4,1 10 6 29 16 WSW 1014,5 -
09.11.2018 00:00:00 7,3 5,0 6 3 22 12 WSW 1014,1 0,0
08.11.2018 23:00:00 7,5 5,0 7 4 21 11 WSW 1014,0 0,0
08.11.2018 22:00:00 7,7 5,8 0 0 24 13 WNW 1013,1 0,4
08.11.2018 21:00:00 9,2 7,3 7 4 26 14 W 1012,4 0,3
08.11.2018 20:00:00 10,0 7,7 7 4 22 12 W 1011,3 0,0
08.11.2018 19:00:00 10,4 8,0 11 6 30 16 WSW 1010,3 -
08.11.2018 18:00:00 10,7 8,7 3 2 20 11 WNW 1009,3 0,0
08.11.2018 17:00:00 12,9 11,0 2 1 18 10 W 1008,8 2,0
08.11.2018 16:00:00 12,8 10,9 6 3 16 9 SSW 1008,0 0,4
08.11.2018 15:00:00 12,4 11,0 10 5 20 11 ESE 1009,0 0,0
08.11.2018 14:00:00 12,3 10,9 10 5 18 10 ESE 1010,5 0,1
08.11.2018 13:00:00 11,5 8,5 9 5 18 10 ESE 1011,7 -

tt = temperature
td = dewpoint
ff = wind speed
fx = gusts
dd = wind direction
ppp = reduced air pressure
rr = precipitation

Next stations